Onde está Cheganças en Portugal?

 

Cheganças está situado na região Lisboa em Portugal!

Buscar o nome de uma cidade:

Chegungni, Chegem, Chegangmal, Cheganskiy, Chegrayevo

Aqui você vai encontrar a localização de Cheganças em um mapa.
Para ver como ele atualmente parece, abaixo estão algumas fotos da região, com webcams online.
Você também pode encontrar a distância para as principais cidades da região e de cidades do resto do Portugal.

Cidades do mundo
Cidades em Portugal que também são encontradas em outros países do mundo.


Onde está Cheganças no mapa?




Webcams perto Cheganças

Benavente › South: Garrocheira - Airport.


Benavente › South: Garrocheira - Airport - Dia
Actual
Benavente › South: Garrocheira - Airport - Actual

Benavente › North-East: Santarém - AIrport, METAR: BENAV 180005Z 36004KT 17/14 Q1015.


Benavente › North-East: Santarém - AIrport, METAR: BENAV 180005Z 36004KT 17/14 Q1015 - Dia
Actual
Benavente › North-East: Santarém - AIrport, METAR: BENAV 180005Z 36004KT 17/14 Q1015 - Actual

Lisbon › North: Ponte Vasco da Gama.


Lisbon › North: Ponte Vasco da Gama - Dia
Actual
Lisbon › North: Ponte Vasco da Gama - Actual

Webcams provided by webcams.travel


Distâncias

Onde está Cheganças em relação a outros lugares?

Top 10 cidades em Lisboa e distância de Cheganças.

Cidade#Populaçãokmmilhas
Lisbon15177984226
Amadora21788564226
Queluz31033984327
Loures4662303220
Rio de Mouro5546954528
Odivelas6546233522
São Domingos de Rana7467175132
Cascais8364365635
Alcabideche9333155333
Póvoa de Santa Iria10289002616

Top 10 cidades em Portugal e distância de Cheganças.

Cidade # Populaçãokmmilhas
Lisbon15177984226
Porto2249630232144
Amadora31788564226
Braga4121393278173
Setúbal51171096138
Coimbra610658013483
Queluz71033984327
Funchal8980411011628
Vila Nova de Gaia970810230143
Loures10662303220



Info

Estatística e Geografia

Portugal é composta de 15299 cidades em 20 regiões.

A região de Lisboa tem 1032 cidades.

Cheganças é o número 409 na região Lisboa.

A cidade é o número 4363 na Portugal.

Onde está Cheganças en Portugal?